createdAt,value
2023-05-18T00:02:26.536Z,89.10
2023-05-18T00:04:56.111Z,89.80
2023-05-18T00:07:24.113Z,89.40
2023-05-18T00:09:52.188Z,89.50
2023-05-18T00:12:20.272Z,89.50
2023-05-18T00:14:48.401Z,89.70
2023-05-18T00:17:16.683Z,89.60
2023-05-18T00:19:46.621Z,89.50
2023-05-18T00:22:18.979Z,89.50
2023-05-18T00:24:47.337Z,89.70
2023-05-18T00:27:15.649Z,89.70
2023-05-18T00:29:43.644Z,89.70
2023-05-18T00:32:11.943Z,89.80
2023-05-18T00:34:39.931Z,90.00
2023-05-18T00:37:07.961Z,89.80
2023-05-18T00:39:37.347Z,89.80
2023-05-18T00:42:05.903Z,89.80
2023-05-18T00:44:33.906Z,89.80
2023-05-18T00:47:02.041Z,90.00
2023-05-18T00:49:30.263Z,90.00
2023-05-18T00:51:58.731Z,90.00
2023-05-18T00:54:27.418Z,90.10
2023-05-18T00:56:56.962Z,90.10
2023-05-18T00:59:24.958Z,90.20
2023-05-18T01:01:53.100Z,90.30
2023-05-18T01:04:21.719Z,90.40
2023-05-18T01:06:50.073Z,90.30
2023-05-18T01:09:18.414Z,90.30
2023-05-18T01:11:57.942Z,90.40
2023-05-18T01:14:37.322Z,90.40
2023-05-18T01:17:12.780Z,90.40
2023-05-18T01:20:02.507Z,90.40
2023-05-18T01:22:44.105Z,90.50
2023-05-18T01:25:19.627Z,90.60
2023-05-18T01:27:50.580Z,90.70
2023-05-18T01:30:19.052Z,90.70
2023-05-18T01:32:47.663Z,90.70
2023-05-18T01:35:15.727Z,90.80
2023-05-18T01:37:43.772Z,90.80
2023-05-18T01:40:11.995Z,90.90
2023-05-18T01:42:51.103Z,90.90
2023-05-18T01:45:23.890Z,91.00
2023-05-18T01:47:57.100Z,91.10
2023-05-18T01:50:31.892Z,91.10
2023-05-18T01:53:07.454Z,91.10
2023-05-18T01:55:39.758Z,91.30
2023-05-18T01:58:09.173Z,91.20
2023-05-18T02:00:38.910Z,91.20
2023-05-18T02:03:06.945Z,91.30
2023-05-18T02:05:35.028Z,91.30
2023-05-18T02:08:03.359Z,91.30
2023-05-18T02:10:31.456Z,91.70
2023-05-18T02:12:59.466Z,91.40
2023-05-18T02:15:27.636Z,91.40
2023-05-18T02:17:58.469Z,91.40
2023-05-18T02:20:28.985Z,91.50
2023-05-18T02:22:58.301Z,91.60
2023-05-18T02:25:26.312Z,91.60
2023-05-18T02:27:54.329Z,91.90
2023-05-18T02:30:22.457Z,91.60
2023-05-18T02:32:50.441Z,91.70
2023-05-18T02:35:19.862Z,91.70
2023-05-18T02:37:50.025Z,91.70
2023-05-18T02:40:18.241Z,91.80
2023-05-18T02:42:46.279Z,91.80
2023-05-18T02:45:14.278Z,91.80
2023-05-18T02:47:43.982Z,91.80
2023-05-18T02:50:12.477Z,91.90
2023-05-18T02:52:42.199Z,91.90
2023-05-18T02:55:10.823Z,92.00
2023-05-18T02:57:38.846Z,92.00
2023-05-18T03:00:11.634Z,92.00
2023-05-18T03:02:40.334Z,92.00
2023-05-18T03:05:09.660Z,92.00
2023-05-18T03:07:37.767Z,92.00
2023-05-18T03:10:08.960Z,92.00
2023-05-18T03:12:36.960Z,92.10
2023-05-18T03:15:05.550Z,92.10
2023-05-18T03:17:33.834Z,92.10
2023-05-18T03:20:04.890Z,92.10
2023-05-18T03:22:32.912Z,92.10
2023-05-18T03:25:02.397Z,92.20
2023-05-18T03:27:31.923Z,92.20
2023-05-18T03:29:59.947Z,92.30
2023-05-18T03:32:28.408Z,92.30
2023-05-18T03:34:56.407Z,92.30
2023-05-18T03:37:24.444Z,92.30
2023-05-18T03:39:52.412Z,92.30
2023-05-18T03:42:20.708Z,92.30
2023-05-18T03:44:50.058Z,92.40
2023-05-18T03:47:18.768Z,92.50
2023-05-18T03:49:46.772Z,92.50
2023-05-18T03:52:15.893Z,92.50
2023-05-18T03:54:44.241Z,92.60
2023-05-18T03:57:12.261Z,92.60
2023-05-18T03:59:40.328Z,92.60
2023-05-18T04:02:09.821Z,92.70
2023-05-18T04:04:37.840Z,92.80
2023-05-18T04:07:06.208Z,92.80
2023-05-18T04:09:34.980Z,92.90
2023-05-18T04:12:03.761Z,92.90
2023-05-18T04:14:33.077Z,92.90
2023-05-18T04:17:04.892Z,92.90
2023-05-18T04:19:35.010Z,92.90
2023-05-18T04:22:04.853Z,93.00
2023-05-18T04:24:34.495Z,93.00
2023-05-18T04:27:03.316Z,93.10
2023-05-18T04:29:32.109Z,93.10
2023-05-18T04:32:01.007Z,93.50
2023-05-18T04:34:29.891Z,93.30
2023-05-18T04:36:59.521Z,93.30
2023-05-18T04:39:27.672Z,93.20
2023-05-18T04:41:58.295Z,93.30
2023-05-18T04:44:27.389Z,93.40
2023-05-18T04:46:55.694Z,93.50
2023-05-18T04:49:23.982Z,93.50
2023-05-18T04:51:55.799Z,93.50
2023-05-18T04:54:26.633Z,93.70
2023-05-18T04:56:54.791Z,93.60
2023-05-18T04:59:26.150Z,93.60
2023-05-18T05:01:54.659Z,93.60
2023-05-18T05:04:23.726Z,93.70
2023-05-18T05:06:51.733Z,93.80
2023-05-18T05:09:19.727Z,93.80
2023-05-18T05:11:49.087Z,94.10
2023-05-18T05:14:17.157Z,94.10
2023-05-18T05:16:45.147Z,94.00
2023-05-18T05:19:13.237Z,94.10
2023-05-18T05:21:41.582Z,94.10
2023-05-18T05:24:09.658Z,94.20
2023-05-18T05:26:37.668Z,94.20
2023-05-18T05:29:07.056Z,94.30
2023-05-18T05:31:35.099Z,94.40
2023-05-18T05:34:03.250Z,94.50
2023-05-18T05:36:31.795Z,94.50
2023-05-18T05:38:59.908Z,94.70
2023-05-18T05:41:27.878Z,94.70
2023-05-18T05:43:56.859Z,94.80
2023-05-18T05:46:26.525Z,94.80
2023-05-18T05:48:54.578Z,95.10
2023-05-18T05:51:22.570Z,94.80
2023-05-18T05:53:50.600Z,94.70
2023-05-18T05:56:18.592Z,94.80
2023-05-18T05:58:46.647Z,94.80
2023-05-18T06:01:14.658Z,94.80
2023-05-18T06:03:45.270Z,94.90
2023-05-18T06:06:14.314Z,95.00
2023-05-18T06:08:42.465Z,95.00
2023-05-18T06:11:11.455Z,94.90
2023-05-18T06:13:39.760Z,95.00
2023-05-18T06:16:07.864Z,95.00
2023-05-18T06:18:36.497Z,95.10
2023-05-18T06:21:05.958Z,95.10
2023-05-18T06:23:33.958Z,95.20
2023-05-18T06:26:01.946Z,95.10
2023-05-18T06:28:29.965Z,95.10
2023-05-18T06:30:58.013Z,95.00
2023-05-18T06:33:26.500Z,94.90
2023-05-18T06:35:54.711Z,94.90
2023-05-18T06:38:24.267Z,94.90
2023-05-18T06:40:52.280Z,94.90
2023-05-18T06:43:20.319Z,94.90
2023-05-18T06:45:48.414Z,94.90
2023-05-18T06:48:16.605Z,94.70
2023-05-18T06:50:44.675Z,94.70
2023-05-18T06:53:13.513Z,94.70
2023-05-18T06:55:42.901Z,94.60
2023-05-18T06:58:11.017Z,94.60
2023-05-18T07:00:39.806Z,94.60
2023-05-18T07:03:08.424Z,94.60
2023-05-18T07:05:39.172Z,94.60
2023-05-18T07:08:07.941Z,94.60
2023-05-18T07:10:36.466Z,94.70
2023-05-18T07:13:06.054Z,94.60
2023-05-18T07:15:34.711Z,94.50
2023-05-18T07:18:03.580Z,94.50
2023-05-18T07:20:31.765Z,94.40
2023-05-18T07:22:59.827Z,94.30
2023-05-18T07:25:28.405Z,94.10
2023-05-18T07:27:56.528Z,93.90
2023-05-18T07:30:27.308Z,94.00
2023-05-18T07:32:56.547Z,93.50
2023-05-18T07:35:26.369Z,93.60
2023-05-18T07:37:54.691Z,93.70
2023-05-18T07:40:22.889Z,93.70
2023-05-18T07:42:50.900Z,94.10
2023-05-18T07:45:18.988Z,93.80
2023-05-18T07:47:48.387Z,93.70
2023-05-18T07:50:16.922Z,93.90
2023-05-18T07:52:44.898Z,93.70
2023-05-18T07:55:13.062Z,93.90
2023-05-18T07:57:41.407Z,93.60
2023-05-18T08:00:10.562Z,93.60
2023-05-18T08:02:38.762Z,92.70
2023-05-18T08:05:10.888Z,92.80
2023-05-18T08:07:39.363Z,92.40
2023-05-18T08:10:07.865Z,92.00
2023-05-18T08:12:35.918Z,92.40
2023-05-18T08:15:04.124Z,92.60
2023-05-18T08:17:32.229Z,92.30
2023-05-18T08:20:00.290Z,91.90
2023-05-18T08:22:29.726Z,91.70
2023-05-18T08:24:58.150Z,91.00
2023-05-18T08:27:26.158Z,90.80
2023-05-18T08:29:55.924Z,91.30
2023-05-18T08:32:24.132Z,91.00
2023-05-18T08:34:52.220Z,90.80
2023-05-18T08:37:20.223Z,90.70
2023-05-18T08:39:49.591Z,90.50
2023-05-18T08:42:24.509Z,90.60
2023-05-18T08:45:07.023Z,90.70
2023-05-18T08:47:37.831Z,90.40
2023-05-18T08:50:07.263Z,90.30
2023-05-18T08:52:38.755Z,90.00
2023-05-18T08:55:12.026Z,90.20
2023-05-18T08:57:43.747Z,90.20
2023-05-18T09:00:13.192Z,90.20
2023-05-18T09:02:42.777Z,90.40
2023-05-18T09:05:12.472Z,90.40
2023-05-18T09:07:42.922Z,90.50
2023-05-18T09:10:13.736Z,90.70
2023-05-18T09:12:43.719Z,89.30
2023-05-18T09:15:12.419Z,89.00
2023-05-18T09:17:40.478Z,88.70
2023-05-18T09:20:10.187Z,89.70
2023-05-18T09:22:40.332Z,89.70
2023-05-18T09:25:10.015Z,88.30
2023-05-18T09:27:39.562Z,88.30
2023-05-18T09:30:12.323Z,89.10
2023-05-18T09:32:40.852Z,89.30
2023-05-18T09:35:10.235Z,89.60
2023-05-18T09:37:42.248Z,89.50
2023-05-18T09:40:11.029Z,90.00
2023-05-18T09:42:41.846Z,89.20
2023-05-18T09:45:18.910Z,87.70
2023-05-18T09:47:47.207Z,88.30
2023-05-18T09:50:15.242Z,87.20
2023-05-18T09:52:44.274Z,86.60
2023-05-18T09:55:12.561Z,86.60
2023-05-18T09:57:44.048Z,85.80
2023-05-18T10:00:13.095Z,85.20
2023-05-18T10:02:41.779Z,84.80
2023-05-18T10:05:20.745Z,85.50
2023-05-18T10:07:49.724Z,86.10
2023-05-18T10:10:20.510Z,86.20
2023-05-18T10:12:52.411Z,86.00
2023-05-18T10:15:22.117Z,85.00
2023-05-18T10:17:51.901Z,85.30
2023-05-18T10:20:24.105Z,85.30
2023-05-18T10:22:53.115Z,86.20
2023-05-18T10:25:22.750Z,86.90
2023-05-18T10:27:57.553Z,87.40
2023-05-18T10:30:27.499Z,87.70
2023-05-18T10:32:57.850Z,87.90
2023-05-18T10:35:28.390Z,87.40
2023-05-18T10:37:58.582Z,85.20
2023-05-18T10:40:29.554Z,83.50
2023-05-18T10:43:01.524Z,83.20
2023-05-18T10:45:30.220Z,82.70
2023-05-18T10:48:00.996Z,83.20
2023-05-18T10:50:30.744Z,83.80
2023-05-18T10:53:00.822Z,84.50
2023-05-18T10:55:29.199Z,84.50
2023-05-18T10:58:04.671Z,85.00
2023-05-18T11:00:36.389Z,85.50
2023-05-18T11:03:06.129Z,84.70
2023-05-18T11:05:34.226Z,83.90
2023-05-18T11:08:03.411Z,82.50
2023-05-18T11:10:36.128Z,83.00
2023-05-18T11:13:07.128Z,84.40
2023-05-18T11:16:08.669Z,83.40
2023-05-18T11:18:47.315Z,83.20
2023-05-18T11:21:36.815Z,83.50
2023-05-18T11:24:22.971Z,83.90
2023-05-18T11:26:52.718Z,84.10
2023-05-18T11:29:24.266Z,82.50
2023-05-18T11:31:54.560Z,84.00
2023-05-18T11:34:44.801Z,82.90
2023-05-18T11:37:14.560Z,80.80
2023-05-18T11:39:55.403Z,80.20
2023-05-18T11:42:34.503Z,80.20
2023-05-18T11:45:09.362Z,80.70
2023-05-18T11:47:39.812Z,80.10
2023-05-18T11:50:08.947Z,80.50
2023-05-18T11:52:47.957Z,80.20
2023-05-18T11:55:17.461Z,80.50
2023-05-18T11:57:48.665Z,80.20
2023-05-18T12:00:20.486Z,79.90
2023-05-18T12:02:50.124Z,80.00
2023-05-18T12:05:18.837Z,80.40
2023-05-18T12:07:53.930Z,81.00
2023-05-18T12:10:23.098Z,81.50
2023-05-18T12:12:53.526Z,81.40
2023-05-18T12:15:25.215Z,81.20
2023-05-18T12:17:53.437Z,80.40
2023-05-18T12:20:25.147Z,81.80
2023-05-18T12:22:54.629Z,81.60
2023-05-18T12:25:24.302Z,81.70
2023-05-18T12:27:53.491Z,81.40
2023-05-18T12:30:24.357Z,79.70
2023-05-18T12:32:54.076Z,79.30
2023-05-18T12:35:23.752Z,78.40
2023-05-18T12:37:51.878Z,78.60
2023-05-18T12:40:21.043Z,79.20
2023-05-18T12:42:53.858Z,79.60
2023-05-18T12:45:24.605Z,80.50
2023-05-18T12:47:54.496Z,80.40
2023-05-18T12:50:23.387Z,80.50
2023-05-18T12:52:52.062Z,80.40
2023-05-18T12:55:22.772Z,80.10
2023-05-18T12:58:01.631Z,78.60
2023-05-18T13:00:33.638Z,78.60
2023-05-18T13:03:07.413Z,79.60
2023-05-18T13:05:35.739Z,79.30
2023-05-18T13:08:03.921Z,78.20
2023-05-18T13:10:33.161Z,79.10
2023-05-18T13:13:03.978Z,79.50
2023-05-18T13:15:38.699Z,78.70
2023-05-18T13:18:10.100Z,78.30
2023-05-18T13:20:41.716Z,79.10
2023-05-18T13:23:11.740Z,78.10
2023-05-18T13:25:39.878Z,78.10
2023-05-18T13:28:10.450Z,77.20
2023-05-18T13:30:40.888Z,77.20
2023-05-18T13:33:09.339Z,76.60
2023-05-18T13:35:37.616Z,76.50
2023-05-18T13:38:05.861Z,78.10
2023-05-18T13:40:34.061Z,76.90
2023-05-18T13:43:02.085Z,77.10
2023-05-18T13:45:30.936Z,77.10
2023-05-18T13:48:00.712Z,78.30
2023-05-18T13:50:29.034Z,76.90
2023-05-18T13:52:57.159Z,76.90
2023-05-18T13:55:25.217Z,77.20
2023-05-18T13:57:53.284Z,76.60
2023-05-18T14:00:21.834Z,76.70
2023-05-18T14:02:49.937Z,76.90
2023-05-18T14:05:19.505Z,76.50
2023-05-18T14:07:47.492Z,77.30
2023-05-18T14:10:15.554Z,77.20
2023-05-18T14:12:43.585Z,76.50
2023-05-18T14:15:13.869Z,76.30
2023-05-18T14:17:42.412Z,75.50
2023-05-18T14:20:11.596Z,76.20
2023-05-18T14:22:41.119Z,76.70
2023-05-18T14:25:09.750Z,77.20
2023-05-18T14:27:37.841Z,77.10
2023-05-18T14:30:07.152Z,75.40
2023-05-18T14:32:35.209Z,75.20
2023-05-18T14:35:03.654Z,75.90
2023-05-18T14:37:32.825Z,77.40
2023-05-18T14:40:02.424Z,76.70
2023-05-18T14:42:30.911Z,74.70
2023-05-18T14:44:58.934Z,74.80
2023-05-18T14:47:27.090Z,75.10
2023-05-18T14:49:55.111Z,75.30
2023-05-18T14:52:23.121Z,76.10
2023-05-18T14:54:51.121Z,75.50
2023-05-18T14:57:20.737Z,74.70
2023-05-18T14:59:48.740Z,74.40
2023-05-18T15:02:16.883Z,74.80
2023-05-18T15:04:45.124Z,74.60
2023-05-18T15:07:13.275Z,74.80
2023-05-18T15:09:41.281Z,75.70
2023-05-18T15:12:09.826Z,75.70
2023-05-18T15:14:39.223Z,76.00
2023-05-18T15:17:08.649Z,74.30
2023-05-18T15:19:37.001Z,73.90
2023-05-18T15:22:05.301Z,74.60
2023-05-18T15:24:33.270Z,74.00
2023-05-18T15:27:03.499Z,74.70
2023-05-18T15:29:31.549Z,75.70
2023-05-18T15:32:01.080Z,75.70
2023-05-18T15:34:29.834Z,74.10
2023-05-18T15:36:59.003Z,73.70
2023-05-18T15:39:26.960Z,74.30
2023-05-18T15:41:54.960Z,74.60
2023-05-18T15:44:22.941Z,75.00
2023-05-18T15:46:51.623Z,75.00
2023-05-18T15:49:21.760Z,74.70
2023-05-18T15:51:49.769Z,74.30
2023-05-18T15:54:17.917Z,74.00
2023-05-18T15:56:46.041Z,75.30
2023-05-18T15:59:14.038Z,75.00
2023-05-18T16:01:42.068Z,74.30
2023-05-18T16:04:10.089Z,74.40
2023-05-18T16:06:39.440Z,74.40
2023-05-18T16:09:07.558Z,74.10
2023-05-18T16:11:36.570Z,73.10
2023-05-18T16:14:04.895Z,72.50
2023-05-18T16:16:33.000Z,72.00
2023-05-18T16:19:02.292Z,71.90
2023-05-18T16:21:31.670Z,72.40
2023-05-18T16:24:01.102Z,72.70
2023-05-18T16:26:29.176Z,73.50
2023-05-18T16:28:57.190Z,74.00
2023-05-18T16:31:25.210Z,73.70
2023-05-18T16:33:53.237Z,74.10
2023-05-18T16:36:21.298Z,74.10
2023-05-18T16:38:49.313Z,72.90
2023-05-18T16:41:18.710Z,73.60
2023-05-18T16:43:46.713Z,73.00
2023-05-18T16:46:14.815Z,72.50
2023-05-18T16:48:42.790Z,72.70
2023-05-18T16:51:10.846Z,73.30
2023-05-18T16:53:40.356Z,73.30
2023-05-18T16:56:08.366Z,73.80
2023-05-18T16:58:37.734Z,73.60
2023-05-18T17:01:15.824Z,73.50
2023-05-18T17:03:53.925Z,73.80
2023-05-18T17:06:22.035Z,74.00
2023-05-18T17:08:53.138Z,73.60
2023-05-18T17:11:21.175Z,73.70
2023-05-18T17:13:52.024Z,73.50
2023-05-18T17:16:21.699Z,73.40
2023-05-18T17:18:49.784Z,73.60
2023-05-18T17:21:17.819Z,73.90
2023-05-18T17:23:45.803Z,73.70
2023-05-18T17:26:13.874Z,73.90
2023-05-18T17:28:42.033Z,74.10
2023-05-18T17:31:11.488Z,74.10
2023-05-18T17:33:39.548Z,74.40
2023-05-18T17:36:08.205Z,74.40
2023-05-18T17:38:36.198Z,74.10
2023-05-18T17:41:05.373Z,74.20
2023-05-18T17:43:33.482Z,74.10
2023-05-18T17:46:01.541Z,74.50
2023-05-18T17:48:31.033Z,74.80
2023-05-18T17:50:59.216Z,74.70
2023-05-18T17:53:27.267Z,74.80
2023-05-18T17:55:55.403Z,75.80
2023-05-18T17:58:23.621Z,75.10
2023-05-18T18:00:51.811Z,75.40
2023-05-18T18:03:20.945Z,75.40
2023-05-18T18:05:50.526Z,75.60
2023-05-18T18:08:18.572Z,75.70
2023-05-18T18:10:46.661Z,75.70
2023-05-18T18:13:14.607Z,75.80
2023-05-18T18:15:44.045Z,76.00
2023-05-18T18:18:12.205Z,76.30
2023-05-18T18:20:40.349Z,76.50
2023-05-18T18:23:09.756Z,76.80
2023-05-18T18:25:37.801Z,76.80
2023-05-18T18:28:07.980Z,76.90
2023-05-18T18:30:35.989Z,77.00
2023-05-18T18:33:04.010Z,77.20
2023-05-18T18:35:32.122Z,77.50
2023-05-18T18:38:00.166Z,77.50
2023-05-18T18:40:29.731Z,78.50
2023-05-18T18:42:57.907Z,77.90
2023-05-18T18:45:26.876Z,77.90
2023-05-18T18:47:54.968Z,78.10
2023-05-18T18:50:23.217Z,78.20
2023-05-18T18:52:51.235Z,78.30
2023-05-18T18:55:19.434Z,78.60
2023-05-18T18:57:48.816Z,78.70
2023-05-18T19:00:20.076Z,78.90
2023-05-18T19:02:48.130Z,79.30
2023-05-18T19:05:21.405Z,79.50
2023-05-18T19:07:50.378Z,79.60
2023-05-18T19:10:18.391Z,79.90
2023-05-18T19:12:46.406Z,80.80
2023-05-18T19:15:16.248Z,80.40
2023-05-18T19:17:45.904Z,80.60
2023-05-18T19:20:14.126Z,80.80
2023-05-18T19:22:42.537Z,80.80
2023-05-18T19:25:11.124Z,81.00
2023-05-18T19:27:39.117Z,81.00
2023-05-18T19:30:08.522Z,81.10
2023-05-18T19:32:37.927Z,81.10
2023-05-18T19:35:06.140Z,81.10
2023-05-18T19:37:34.148Z,81.00
2023-05-18T19:40:02.151Z,81.10
2023-05-18T19:42:30.178Z,81.20
2023-05-18T19:44:58.286Z,81.20
2023-05-18T19:47:26.459Z,81.30
2023-05-18T19:49:55.896Z,81.50
2023-05-18T19:52:23.865Z,81.80
2023-05-18T19:54:51.863Z,83.20
2023-05-18T19:57:21.313Z,83.90
2023-05-18T19:59:49.310Z,84.80
2023-05-18T20:02:17.333Z,85.30
2023-05-18T20:04:46.145Z,86.20
2023-05-18T20:07:17.043Z,86.70
2023-05-18T20:09:45.085Z,87.50
2023-05-18T20:12:13.117Z,88.00
2023-05-18T20:14:42.789Z,88.50
2023-05-18T20:17:10.792Z,89.40
2023-05-18T20:19:39.130Z,89.70
2023-05-18T20:22:09.149Z,90.00
2023-05-18T20:24:38.692Z,90.40
2023-05-18T20:27:07.798Z,90.50
2023-05-18T20:29:35.980Z,90.80
2023-05-18T20:32:04.133Z,90.90
2023-05-18T20:34:32.279Z,91.00
2023-05-18T20:37:00.515Z,91.20
2023-05-18T20:39:29.180Z,91.40
2023-05-18T20:42:01.226Z,91.50
2023-05-18T20:44:29.314Z,91.60
2023-05-18T20:46:57.477Z,91.70
2023-05-18T20:49:25.951Z,91.80
2023-05-18T20:51:54.108Z,91.70
2023-05-18T20:54:22.342Z,91.80
2023-05-18T20:56:51.338Z,92.00
2023-05-18T20:59:21.540Z,92.10
2023-05-18T21:01:51.004Z,92.10
2023-05-18T21:04:19.670Z,92.50
2023-05-18T21:06:49.362Z,92.30
2023-05-18T21:09:19.356Z,92.20
2023-05-18T21:11:47.570Z,92.10
2023-05-18T21:14:15.890Z,92.30
2023-05-18T21:16:45.532Z,92.40
2023-05-18T21:19:13.651Z,92.20
2023-05-18T21:21:41.771Z,92.70
2023-05-18T21:24:10.050Z,92.40
2023-05-18T21:26:38.130Z,92.50
2023-05-18T21:29:06.227Z,92.40
2023-05-18T21:31:34.475Z,92.70
2023-05-18T21:34:03.975Z,92.30
2023-05-18T21:36:34.179Z,92.20
2023-05-18T21:39:03.921Z,92.30
2023-05-18T21:41:32.180Z,92.30
2023-05-18T21:44:00.184Z,92.20
2023-05-18T21:46:28.576Z,92.40
2023-05-18T21:48:56.613Z,92.50
2023-05-18T21:51:26.116Z,92.40
2023-05-18T21:53:54.092Z,92.40
2023-05-18T21:56:22.489Z,92.50
2023-05-18T21:58:50.473Z,92.60
2023-05-18T22:01:21.091Z,92.40
2023-05-18T22:03:49.231Z,92.60
2023-05-18T22:06:17.887Z,92.50
2023-05-18T22:08:47.357Z,92.50
2023-05-18T22:11:16.281Z,92.60
2023-05-18T22:13:44.309Z,92.60
2023-05-18T22:16:12.291Z,92.60
2023-05-18T22:18:40.353Z,92.60
2023-05-18T22:21:08.493Z,92.70
2023-05-18T22:23:37.308Z,92.90
2023-05-18T22:26:07.077Z,92.70
2023-05-18T22:28:35.104Z,92.90
2023-05-18T22:31:03.081Z,93.00
2023-05-18T22:33:31.071Z,93.00
2023-05-18T22:35:59.065Z,93.00
2023-05-18T22:38:27.710Z,93.10
2023-05-18T22:40:55.727Z,93.10
2023-05-18T22:43:26.052Z,93.00
2023-05-18T22:45:54.047Z,93.10
2023-05-18T22:48:22.104Z,93.20
2023-05-18T22:50:50.088Z,93.30
2023-05-18T22:53:18.212Z,93.40
2023-05-18T22:55:46.218Z,93.40
2023-05-18T22:58:14.277Z,93.50
2023-05-18T23:00:43.612Z,93.50
2023-05-18T23:03:11.632Z,93.50
2023-05-18T23:05:41.241Z,93.50
2023-05-18T23:08:09.550Z,93.50
2023-05-18T23:10:37.628Z,93.60
2023-05-18T23:13:05.671Z,93.70
2023-05-18T23:15:34.375Z,93.70
2023-05-18T23:18:03.863Z,93.70
2023-05-18T23:20:34.617Z,93.80
2023-05-18T23:23:02.762Z,93.80
2023-05-18T23:25:30.983Z,93.90
2023-05-18T23:27:59.024Z,93.80
2023-05-18T23:30:27.114Z,93.80
2023-05-18T23:32:56.603Z,94.10
2023-05-18T23:35:26.935Z,93.70
2023-05-18T23:37:58.021Z,93.70
2023-05-18T23:40:26.550Z,93.70
2023-05-18T23:42:55.162Z,93.70
2023-05-18T23:45:24.563Z,93.60
2023-05-18T23:47:56.036Z,93.70
2023-05-18T23:50:26.121Z,93.70
2023-05-18T23:52:54.408Z,93.70
2023-05-18T23:55:24.909Z,93.60
2023-05-18T23:57:53.853Z,93.60
